METAR Data
IDs: Format: Raw Decoded Include TAF

Data at: 0245 UTC 23 Sep 2018

METAR for:KGEZ (Shelbyville Muni, IN, US)
Text:KGEZ 230153Z AUTO 04003KT 10SM CLR 14/12 A3019 RMK AO2 SLP222 T01390117
Temperature: 13.9°C ( 57°F)
Dewpoint: 11.7°C ( 53°F) [RH = 87%]
Pressure (altimeter):30.19 inches Hg (1022.4 mb) [Sea level pressure: 1022.2 mb]
Winds:from the NE (40 degrees) at 3 MPH (3 knots; 1.5 m/s)
Visibility:10 or more sm (16+ km)
Ceiling:at least 12,000 feet AGL
Clouds:sky clear below 12,000 feet AGL
QC Flag:automated observation with no human augmentation